createdAt,value
2022-08-07T00:00:24.441Z,79.11
2022-08-07T00:02:50.939Z,79.60
2022-08-07T00:05:20.041Z,79.44
2022-08-07T00:07:47.055Z,80.24
2022-08-07T00:10:26.082Z,80.76
2022-08-07T00:13:00.408Z,80.77
2022-08-07T00:15:38.219Z,80.21
2022-08-07T00:18:19.349Z,79.91
2022-08-07T00:20:46.685Z,79.39
2022-08-07T00:23:14.188Z,79.64
2022-08-07T00:25:41.481Z,80.25
2022-08-07T00:28:08.253Z,80.17
2022-08-07T00:30:37.102Z,80.12
2022-08-07T00:33:03.545Z,80.02
2022-08-07T00:35:30.475Z,81.01
2022-08-07T00:37:58.623Z,81.47
2022-08-07T00:40:39.916Z,82.39
2022-08-07T00:43:09.826Z,80.88
2022-08-07T00:45:37.060Z,82.43
2022-08-07T00:48:08.202Z,82.00
2022-08-07T00:50:46.105Z,83.08
2022-08-07T00:53:18.622Z,83.07
2022-08-07T00:56:02.765Z,82.85
2022-08-07T00:58:31.025Z,82.45
2022-08-07T01:00:58.308Z,82.49
2022-08-07T01:03:57.312Z,84.06
2022-08-07T01:06:12.338Z,84.78
2022-08-07T01:08:43.204Z,84.15
2022-08-07T01:12:04.996Z,84.49
2022-08-07T01:14:07.836Z,85.15
2022-08-07T01:16:36.949Z,84.37
2022-08-07T01:19:18.303Z,85.13
2022-08-07T01:21:47.134Z,84.16
2022-08-07T01:24:14.580Z,83.76
2022-08-07T01:26:51.948Z,84.14
2022-08-07T01:29:19.153Z,83.57
2022-08-07T01:31:48.217Z,84.09
2022-08-07T01:34:15.323Z,84.38
2022-08-07T01:36:41.882Z,86.29
2022-08-07T01:39:10.939Z,86.09
2022-08-07T01:41:39.132Z,84.92
2022-08-07T01:44:21.447Z,85.33
2022-08-07T01:46:50.090Z,84.30
2022-08-07T01:49:16.640Z,85.31
2022-08-07T01:52:02.074Z,84.65
2022-08-07T01:54:36.839Z,84.58
2022-08-07T01:57:24.623Z,86.38
2022-08-07T02:00:03.704Z,85.08
2022-08-07T02:03:18.961Z,85.52
2022-08-07T02:05:47.645Z,85.62
2022-08-07T02:08:19.128Z,86.23
2022-08-07T02:10:55.131Z,85.14
2022-08-07T02:13:56.646Z,84.99
2022-08-07T02:16:11.880Z,85.23
2022-08-07T02:18:47.263Z,85.03
2022-08-07T02:21:16.615Z,84.42
2022-08-07T02:23:44.952Z,84.53
2022-08-07T02:26:32.716Z,85.44
2022-08-07T02:29:02.107Z,85.05
2022-08-07T02:31:30.783Z,85.43
2022-08-07T02:34:04.055Z,85.22
2022-08-07T02:36:39.403Z,86.61
2022-08-07T02:39:09.491Z,86.76
2022-08-07T02:41:50.913Z,86.60
2022-08-07T02:44:23.156Z,87.18
2022-08-07T02:46:55.972Z,85.94
2022-08-07T02:49:28.603Z,85.96
2022-08-07T02:52:13.980Z,85.43
2022-08-07T02:54:42.422Z,85.29
2022-08-07T02:57:13.422Z,85.68
2022-08-07T02:59:42.421Z,88.62
2022-08-07T03:02:09.815Z,87.99
2022-08-07T03:04:37.894Z,87.56
2022-08-07T03:07:07.225Z,87.20
2022-08-07T03:09:43.773Z,87.45
2022-08-07T03:12:21.624Z,87.70
2022-08-07T03:14:52.325Z,87.85
2022-08-07T03:17:19.740Z,87.39
2022-08-07T03:19:54.889Z,87.32
2022-08-07T03:22:24.195Z,87.76
2022-08-07T03:24:56.273Z,87.40
2022-08-07T03:27:30.312Z,86.97
2022-08-07T03:29:58.649Z,87.38
2022-08-07T03:32:28.427Z,88.34
2022-08-07T03:35:17.160Z,87.76
2022-08-07T03:37:53.786Z,87.76
2022-08-07T03:40:22.515Z,87.83
2022-08-07T03:42:50.992Z,87.04
2022-08-07T03:45:20.945Z,86.58
2022-08-07T03:47:58.481Z,86.37
2022-08-07T03:50:25.375Z,86.20
2022-08-07T03:52:58.016Z,86.12
2022-08-07T03:55:24.627Z,86.66
2022-08-07T03:59:07.063Z,87.28
2022-08-07T04:01:00.455Z,86.37
2022-08-07T04:03:27.084Z,86.23
2022-08-07T04:05:53.736Z,87.22
2022-08-07T04:08:26.225Z,87.61
2022-08-07T04:10:54.320Z,88.15
2022-08-07T04:14:09.301Z,88.20
2022-08-07T04:16:31.422Z,88.23
2022-08-07T04:19:01.592Z,87.44
2022-08-07T04:21:32.028Z,87.24
2022-08-07T04:24:05.982Z,87.34
2022-08-07T04:26:34.064Z,87.00
2022-08-07T04:29:00.435Z,87.26
2022-08-07T04:32:02.104Z,88.33
2022-08-07T04:34:17.419Z,88.13
2022-08-07T04:36:54.342Z,88.16
2022-08-07T04:39:25.813Z,88.08
2022-08-07T04:41:52.523Z,87.44
2022-08-07T04:44:19.340Z,87.18
2022-08-07T04:47:04.859Z,87.53
2022-08-07T04:49:42.418Z,87.46
2022-08-07T04:52:46.847Z,87.94
2022-08-07T04:58:12.326Z,87.64
2022-08-07T04:59:18.274Z,87.58
2022-08-07T05:01:59.967Z,87.60
2022-08-07T05:04:44.086Z,88.25
2022-08-07T05:07:36.603Z,87.57
2022-08-07T05:10:06.166Z,87.82
2022-08-07T05:12:51.322Z,88.40
2022-08-07T05:15:24.389Z,88.27
2022-08-07T05:18:16.216Z,89.13
2022-08-07T05:20:47.963Z,87.51
2022-08-07T05:23:53.365Z,88.24
2022-08-07T05:26:23.711Z,89.37
2022-08-07T05:28:55.723Z,91.18
2022-08-07T05:31:25.160Z,91.93
2022-08-07T05:34:05.856Z,89.99
2022-08-07T05:36:42.779Z,88.20
2022-08-07T05:40:17.404Z,86.10
2022-08-07T05:42:02.582Z,82.77
2022-08-07T05:44:31.264Z,81.96
2022-08-07T05:47:01.213Z,78.55
2022-08-07T05:49:40.548Z,75.86
2022-08-07T05:52:08.217Z,72.75
2022-08-07T05:54:53.453Z,69.50
2022-08-07T05:57:26.428Z,66.14
2022-08-07T05:59:57.440Z,63.08
2022-08-07T06:02:28.719Z,60.20
2022-08-07T06:05:01.669Z,57.94
2022-08-07T06:08:14.073Z,55.35
2022-08-07T06:10:18.088Z,53.08
2022-08-07T06:12:45.913Z,51.31
2022-08-07T06:15:16.252Z,49.29
2022-08-07T06:17:53.706Z,47.35
2022-08-07T06:20:32.018Z,45.06
2022-08-07T06:23:45.982Z,44.18
2022-08-07T06:25:57.988Z,43.19
2022-08-07T06:28:27.307Z,43.20
2022-08-07T06:30:54.894Z,42.90
2022-08-07T06:33:22.672Z,42.20
2022-08-07T06:36:12.477Z,41.59
2022-08-07T06:38:35.638Z,40.43
2022-08-07T06:41:06.915Z,39.45
2022-08-07T06:43:39.633Z,36.52
2022-08-07T06:46:12.314Z,37.51
2022-08-07T06:48:42.085Z,37.58
2022-08-07T06:51:16.684Z,36.96
2022-08-07T06:55:27.907Z,36.47
2022-08-07T06:56:49.770Z,34.74
2022-08-07T07:00:12.817Z,33.89
2022-08-07T07:02:20.316Z,32.77
2022-08-07T07:05:06.965Z,32.99
2022-08-07T07:08:00.129Z,32.01
2022-08-07T07:10:30.397Z,30.95
2022-08-07T07:13:07.923Z,31.28
2022-08-07T07:15:43.273Z,31.51
2022-08-07T07:18:48.118Z,31.01
2022-08-07T07:21:22.202Z,30.38
2022-08-07T07:24:10.028Z,30.68
2022-08-07T07:26:40.789Z,29.90
2022-08-07T07:29:40.151Z,31.01
2022-08-07T07:32:09.690Z,30.91
2022-08-07T07:34:40.832Z,30.56
2022-08-07T07:37:21.529Z,27.89
2022-08-07T07:39:54.502Z,28.71
2022-08-07T07:42:25.935Z,30.01
2022-08-07T07:45:02.294Z,29.66
2022-08-07T07:47:30.087Z,30.77
2022-08-07T07:50:33.755Z,28.65
2022-08-07T07:53:00.871Z,28.63
2022-08-07T07:55:37.312Z,30.09
2022-08-07T07:58:13.175Z,30.89
2022-08-07T08:00:42.502Z,30.08
2022-08-07T08:04:09.366Z,29.76
2022-08-07T08:06:06.187Z,32.05
2022-08-07T08:08:36.992Z,30.60
2022-08-07T08:11:08.788Z,30.40
2022-08-07T08:13:54.660Z,28.48
2022-08-07T08:16:29.861Z,29.07
2022-08-07T08:18:58.453Z,29.99
2022-08-07T08:21:55.702Z,28.81
2022-08-07T08:24:18.611Z,28.27
2022-08-07T08:27:09.388Z,29.04
2022-08-07T08:29:54.183Z,29.10
2022-08-07T08:32:38.641Z,27.06
2022-08-07T08:35:09.871Z,26.42
2022-08-07T08:37:59.899Z,26.59
2022-08-07T08:40:37.452Z,27.07
2022-08-07T08:43:18.911Z,27.40
2022-08-07T08:45:59.129Z,24.87
2022-08-07T08:48:45.751Z,26.78
2022-08-07T08:52:13.171Z,25.77
2022-08-07T08:54:47.207Z,24.95
2022-08-07T08:57:25.927Z,26.41
2022-08-07T09:00:01.640Z,26.49
2022-08-07T09:02:34.580Z,26.79
2022-08-07T09:05:36.875Z,26.39
2022-08-07T09:08:28.517Z,26.16
2022-08-07T09:11:50.618Z,25.05
2022-08-07T09:14:34.089Z,24.94
2022-08-07T09:17:59.021Z,27.23
2022-08-07T09:20:38.879Z,26.04
2022-08-07T09:24:33.193Z,27.36
2022-08-07T09:26:31.908Z,26.62
2022-08-07T09:30:05.591Z,26.45
2022-08-07T09:32:37.472Z,25.65
2022-08-07T09:36:04.846Z,26.64
2022-08-07T09:38:12.603Z,27.89
2022-08-07T09:41:01.533Z,27.64
2022-08-07T09:44:05.887Z,28.32
2022-08-07T09:47:56.174Z,28.49
2022-08-07T09:50:02.528Z,28.13
2022-08-07T09:52:51.653Z,29.66
2022-08-07T09:56:03.534Z,30.24
2022-08-07T09:58:42.364Z,30.60
2022-08-07T10:01:52.631Z,31.56
2022-08-07T10:04:52.740Z,29.70
2022-08-07T10:08:11.497Z,28.87
2022-08-07T10:11:59.753Z,29.78
2022-08-07T10:14:00.261Z,30.38
2022-08-07T10:16:33.097Z,30.08
2022-08-07T10:19:19.023Z,30.68
2022-08-07T10:22:24.834Z,32.11
2022-08-07T10:25:23.040Z,33.97
2022-08-07T10:28:12.631Z,31.13
2022-08-07T10:31:05.928Z,32.11
2022-08-07T10:34:06.482Z,35.49
2022-08-07T10:36:56.121Z,31.66
2022-08-07T10:40:05.442Z,31.74
2022-08-07T10:42:46.927Z,31.43
2022-08-07T10:45:57.270Z,32.46
2022-08-07T10:48:45.644Z,32.49
2022-08-07T10:51:39.369Z,33.08
2022-08-07T10:54:35.381Z,31.68
2022-08-07T10:57:34.583Z,32.28
2022-08-07T11:00:10.068Z,32.90
2022-08-07T11:03:00.381Z,32.09
2022-08-07T11:05:55.193Z,32.12
2022-08-07T11:08:35.552Z,33.19
2022-08-07T11:11:05.401Z,33.75
2022-08-07T11:14:44.286Z,34.40
2022-08-07T11:16:36.344Z,34.71
2022-08-07T11:19:27.133Z,34.74
2022-08-07T11:22:32.334Z,35.10
2022-08-07T11:25:20.296Z,34.70
2022-08-07T11:28:15.298Z,32.53
2022-08-07T11:31:02.594Z,32.19
2022-08-07T11:34:00.446Z,32.93
2022-08-07T11:36:30.907Z,30.83
2022-08-07T11:39:20.037Z,32.53
2022-08-07T11:42:18.971Z,31.57
2022-08-07T11:44:57.520Z,33.74
2022-08-07T11:47:56.624Z,32.16
2022-08-07T11:50:57.871Z,34.48
2022-08-07T11:54:01.399Z,35.02
2022-08-07T11:56:40.600Z,34.75
2022-08-07T12:00:12.045Z,34.09
2022-08-07T12:02:49.776Z,33.52
2022-08-07T12:06:39.716Z,31.50
2022-08-07T12:08:55.944Z,32.51
2022-08-07T12:11:32.383Z,32.50
2022-08-07T12:14:08.143Z,33.82
2022-08-07T12:16:40.873Z,33.93
2022-08-07T12:19:21.581Z,32.48
2022-08-07T12:22:39.247Z,33.54
2022-08-07T12:25:07.802Z,33.40
2022-08-07T12:28:09.718Z,33.85
2022-08-07T12:30:33.033Z,33.17
2022-08-07T12:33:31.049Z,34.10
2022-08-07T12:36:16.231Z,35.02
2022-08-07T12:38:47.381Z,35.91
2022-08-07T12:41:42.667Z,34.84
2022-08-07T12:44:17.154Z,34.51
2022-08-07T12:46:57.501Z,36.18
2022-08-07T12:49:51.945Z,36.78
2022-08-07T12:52:35.003Z,35.17
2022-08-07T12:55:40.566Z,36.79
2022-08-07T12:58:12.895Z,34.46
2022-08-07T13:00:54.292Z,34.57
2022-08-07T13:03:54.676Z,33.35
2022-08-07T13:07:01.691Z,34.29
2022-08-07T13:10:19.600Z,32.43
2022-08-07T13:13:47.491Z,32.61
2022-08-07T13:16:15.798Z,32.35
2022-08-07T13:18:57.093Z,32.42
2022-08-07T13:21:51.125Z,33.16
2022-08-07T13:24:34.061Z,34.55
2022-08-07T13:27:10.342Z,34.55
2022-08-07T13:29:47.000Z,35.27
2022-08-07T13:32:31.611Z,34.11
2022-08-07T13:35:15.755Z,33.83
2022-08-07T13:38:01.027Z,32.48
2022-08-07T13:40:54.298Z,34.24
2022-08-07T13:43:22.888Z,36.32
2022-08-07T13:46:21.188Z,36.59
2022-08-07T13:48:51.913Z,35.70
2022-08-07T13:52:05.603Z,38.28
2022-08-07T13:54:22.461Z,39.54
2022-08-07T13:56:56.263Z,40.67
2022-08-07T13:59:29.145Z,42.37
2022-08-07T14:02:04.512Z,42.02
2022-08-07T14:04:35.610Z,41.43
2022-08-07T14:07:06.492Z,41.04
2022-08-07T14:10:02.693Z,41.78
2022-08-07T14:12:41.581Z,41.37
2022-08-07T14:15:18.652Z,41.47
2022-08-07T14:18:23.567Z,41.41
2022-08-07T14:20:41.830Z,41.78
2022-08-07T14:23:58.573Z,42.18
2022-08-07T14:26:28.405Z,41.94
2022-08-07T14:29:05.950Z,42.20
2022-08-07T14:31:56.445Z,40.12
2022-08-07T14:34:29.915Z,39.78
2022-08-07T14:37:01.783Z,39.69
2022-08-07T14:40:15.701Z,39.65
2022-08-07T14:42:24.793Z,38.08
2022-08-07T14:44:59.770Z,38.05
2022-08-07T14:47:44.473Z,37.89
2022-08-07T14:50:15.394Z,38.49
2022-08-07T14:52:42.201Z,36.33
2022-08-07T14:55:12.088Z,34.23
2022-08-07T15:00:39.293Z,34.23
2022-08-07T15:06:03.618Z,33.15
2022-08-07T15:08:50.345Z,33.58
2022-08-07T15:11:52.872Z,33.10
2022-08-07T15:14:30.651Z,33.55
2022-08-07T15:17:01.140Z,33.87
2022-08-07T15:20:30.702Z,34.00
2022-08-07T15:25:18.419Z,35.23
2022-08-07T15:28:32.124Z,35.07
2022-08-07T15:30:36.389Z,33.94
2022-08-07T15:33:33.957Z,34.03
2022-08-07T15:36:05.611Z,35.14
2022-08-07T15:38:51.652Z,35.22
2022-08-07T15:42:44.791Z,36.23
2022-08-07T15:44:14.057Z,37.17
2022-08-07T15:46:51.726Z,37.41
2022-08-07T15:52:13.786Z,36.37
2022-08-07T15:54:44.518Z,36.05
2022-08-07T15:57:40.211Z,37.49
2022-08-07T16:00:06.853Z,36.75
2022-08-07T16:02:46.723Z,38.62
2022-08-07T16:05:17.497Z,37.69
2022-08-07T16:08:33.326Z,37.64
2022-08-07T16:10:37.138Z,36.75
2022-08-07T16:13:57.792Z,37.90
2022-08-07T16:16:48.818Z,39.52
2022-08-07T16:19:42.184Z,40.13
2022-08-07T16:22:55.314Z,39.27
2022-08-07T16:25:54.740Z,40.86
2022-08-07T16:30:06.977Z,40.95
2022-08-07T16:31:58.191Z,41.79
2022-08-07T16:34:48.072Z,41.21
2022-08-07T16:38:06.538Z,41.69
2022-08-07T16:40:57.256Z,41.24
2022-08-07T16:44:03.834Z,41.65
2022-08-07T16:47:16.345Z,42.44
2022-08-07T16:50:35.214Z,42.45
2022-08-07T16:54:02.225Z,41.99
2022-08-07T16:56:23.236Z,42.44
2022-08-07T16:59:11.215Z,42.47
2022-08-07T17:02:15.484Z,42.82
2022-08-07T17:06:19.636Z,42.11
2022-08-07T17:08:10.833Z,41.92
2022-08-07T17:10:40.784Z,42.53
2022-08-07T17:13:19.698Z,43.04
2022-08-07T17:15:53.969Z,42.74
2022-08-07T17:18:32.538Z,42.19
2022-08-07T17:21:01.145Z,43.06
2022-08-07T17:23:51.669Z,43.82
2022-08-07T17:26:30.498Z,44.28
2022-08-07T17:30:14.177Z,44.99
2022-08-07T17:32:30.627Z,44.20
2022-08-07T17:35:51.742Z,44.21
2022-08-07T17:38:05.033Z,44.62
2022-08-07T17:40:56.426Z,45.35
2022-08-07T17:44:01.906Z,46.37
2022-08-07T17:46:47.031Z,46.64
2022-08-07T17:49:30.184Z,47.20
2022-08-07T17:52:31.149Z,48.23
2022-08-07T17:55:08.537Z,47.45
2022-08-07T17:57:58.998Z,48.05
2022-08-07T18:00:34.213Z,48.55
2022-08-07T18:03:18.484Z,48.88
2022-08-07T18:06:03.070Z,49.86
2022-08-07T18:09:01.259Z,49.93
2022-08-07T18:12:11.867Z,50.27
2022-08-07T18:14:45.087Z,50.73
2022-08-07T18:18:47.318Z,51.46
2022-08-07T18:21:10.964Z,50.88
2022-08-07T18:23:43.364Z,50.80
2022-08-07T18:26:17.939Z,51.31
2022-08-07T18:29:03.660Z,51.56
2022-08-07T18:31:50.158Z,52.04
2022-08-07T18:35:00.526Z,52.23
2022-08-07T18:38:57.454Z,52.18
2022-08-07T18:40:42.732Z,52.75
2022-08-07T18:44:17.112Z,53.46
2022-08-07T18:46:54.860Z,53.56
2022-08-07T18:50:31.879Z,54.20
2022-08-07T18:53:02.875Z,54.60
2022-08-07T18:55:40.677Z,54.24
2022-08-07T18:58:28.583Z,55.49
2022-08-07T19:01:04.771Z,55.44
2022-08-07T19:04:01.287Z,55.79
2022-08-07T19:06:41.131Z,56.37
2022-08-07T19:09:55.389Z,56.43
2022-08-07T19:12:34.113Z,56.72
2022-08-07T19:16:02.404Z,57.29
2022-08-07T19:18:34.564Z,57.95
2022-08-07T19:21:47.639Z,58.39
2022-08-07T19:24:35.615Z,58.29
2022-08-07T19:28:57.903Z,59.32
2022-08-07T19:30:58.702Z,59.77
2022-08-07T19:32:50.900Z,60.32
2022-08-07T19:35:22.655Z,60.86
2022-08-07T19:37:57.957Z,61.20
2022-08-07T19:40:34.843Z,60.68
2022-08-07T19:43:09.527Z,60.64
2022-08-07T19:46:05.147Z,60.60
2022-08-07T19:48:42.889Z,62.50
2022-08-07T19:51:19.337Z,62.80
2022-08-07T19:54:34.958Z,63.41
2022-08-07T19:57:51.866Z,63.60
2022-08-07T19:59:39.945Z,63.54
2022-08-07T20:02:19.142Z,63.25
2022-08-07T20:04:49.198Z,63.65
2022-08-07T20:07:23.500Z,64.85
2022-08-07T20:10:36.314Z,64.56
2022-08-07T20:12:44.849Z,64.95
2022-08-07T20:15:22.067Z,65.42
2022-08-07T20:17:56.365Z,64.49
2022-08-07T20:20:31.375Z,64.68
2022-08-07T20:23:10.888Z,66.06
2022-08-07T20:25:51.013Z,66.48
2022-08-07T20:28:19.421Z,68.74
2022-08-07T20:30:47.249Z,69.34
2022-08-07T20:33:24.412Z,69.85
2022-08-07T20:36:06.377Z,70.11
2022-08-07T20:38:34.017Z,69.62
2022-08-07T20:41:03.835Z,69.52
2022-08-07T20:43:33.942Z,69.63
2022-08-07T20:46:28.442Z,70.13
2022-08-07T20:49:54.367Z,69.36
2022-08-07T20:51:40.693Z,69.44
2022-08-07T20:54:30.339Z,68.36
2022-08-07T20:57:03.307Z,69.13
2022-08-07T21:00:07.167Z,70.05
2022-08-07T21:02:23.261Z,71.33
2022-08-07T21:04:54.728Z,72.11
2022-08-07T21:07:23.376Z,72.23
2022-08-07T21:10:00.367Z,73.45
2022-08-07T21:12:30.845Z,73.20
2022-08-07T21:15:02.470Z,72.37
2022-08-07T21:18:06.151Z,71.83
2022-08-07T21:20:30.427Z,71.62
2022-08-07T21:23:08.500Z,71.28
2022-08-07T21:25:58.526Z,72.00
2022-08-07T21:28:48.594Z,71.50
2022-08-07T21:32:03.682Z,72.19
2022-08-07T21:34:48.302Z,71.74
2022-08-07T21:37:23.836Z,75.71
2022-08-07T21:39:59.557Z,76.48
2022-08-07T21:42:42.688Z,77.15
2022-08-07T21:46:05.113Z,76.47
2022-08-07T21:48:34.328Z,76.45
2022-08-07T21:51:32.524Z,75.71
2022-08-07T21:54:30.392Z,74.70
2022-08-07T21:57:06.185Z,74.41
2022-08-07T22:00:04.287Z,75.81
2022-08-07T22:03:05.633Z,77.27
2022-08-07T22:05:46.238Z,76.72
2022-08-07T22:08:19.572Z,74.90
2022-08-07T22:10:50.955Z,75.14
2022-08-07T22:13:24.382Z,74.90
2022-08-07T22:16:43.356Z,74.40
2022-08-07T22:19:29.315Z,74.30
2022-08-07T22:22:28.933Z,74.65
2022-08-07T22:25:02.504Z,74.80
2022-08-07T22:28:07.753Z,75.17
2022-08-07T22:30:31.698Z,75.63
2022-08-07T22:33:04.571Z,75.33
2022-08-07T22:35:41.660Z,74.96
2022-08-07T22:38:24.084Z,75.75
2022-08-07T22:41:07.476Z,75.04
2022-08-07T22:43:48.756Z,75.96
2022-08-07T22:47:06.529Z,75.43
2022-08-07T22:49:51.746Z,76.01
2022-08-07T22:52:43.359Z,75.71
2022-08-07T22:55:22.599Z,76.12
2022-08-07T22:58:27.923Z,77.37
2022-08-07T23:01:21.930Z,76.40
2022-08-07T23:04:03.926Z,77.11
2022-08-07T23:06:51.291Z,76.43
2022-08-07T23:10:06.339Z,76.18
2022-08-07T23:13:04.211Z,77.15
2022-08-07T23:16:48.454Z,78.33
2022-08-07T23:19:11.436Z,77.59
2022-08-07T23:21:51.759Z,77.00
2022-08-07T23:24:38.715Z,77.21
2022-08-07T23:27:33.942Z,76.75
2022-08-07T23:30:38.060Z,76.49
2022-08-07T23:34:36.712Z,78.62
2022-08-07T23:36:36.313Z,78.04
2022-08-07T23:39:22.036Z,78.11
2022-08-07T23:42:05.883Z,77.92
2022-08-07T23:44:48.376Z,78.59
2022-08-07T23:47:42.262Z,78.84
2022-08-07T23:50:49.641Z,79.31
2022-08-07T23:53:49.321Z,78.67
2022-08-07T23:56:38.890Z,79.32
